Time;durP1;ratioP1;P1;durP2;ratioP2;P2;SDS_P1;SDS_P2;PMS_P1;PMS_P2;Temp;Humidity;BMP_temperature;BMP_pressure;BME280_temperature;BME280_humidity;BME280_pressure;Samples;Min_cycle;Max_cycle;Signal;HPM_P1;HPM_P2
2022/03/04 00:01:34;;;;;;;22.85;14.20;;;;;;;-146.41;100.00;57768.22;4976351;28;20082;-67
2022/03/04 00:04:01;;;;;;;25.55;14.80;;;0.40;99.90;;;-146.41;100.00;57768.22;4972768;28;20104;-67
2022/03/04 00:06:28;;;;;;;23.52;13.98;;;0.40;99.90;;;-146.41;100.00;57768.22;4977259;28;20047;-67
2022/03/04 00:08:56;;;;;;;25.73;13.30;;;0.40;99.90;;;-146.41;100.00;57768.22;4977465;28;20089;-68
2022/03/04 00:11:23;;;;;;;21.65;12.75;;;0.40;99.90;;;-146.41;100.00;57768.22;4980279;28;20448;-67
2022/03/04 00:13:51;;;;;;;23.58;12.98;;;0.30;99.90;;;-146.41;100.00;57768.22;4976590;28;20050;-67
2022/03/04 00:16:18;;;;;;;23.42;12.88;;;0.30;99.90;;;-146.41;100.00;57768.22;4977130;28;20109;-67
2022/03/04 00:18:45;;;;;;;21.70;11.65;;;0.40;99.90;;;-146.41;100.00;57768.22;4973755;28;20078;-67
2022/03/04 00:21:12;;;;;;;24.20;11.70;;;0.50;99.90;;;-146.41;100.00;57768.22;4979557;28;20058;-67
2022/03/04 00:23:39;;;;;;;22.83;13.02;;;0.60;99.90;;;-146.41;100.00;57768.22;4964286;28;20062;-67
2022/03/04 00:26:07;;;;;;;22.05;12.10;;;0.70;99.90;;;-146.41;100.00;57768.22;4976496;28;20086;-67
2022/03/04 00:28:34;;;;;;;24.83;11.68;;;;;;;-146.41;100.00;57768.22;4975838;28;20054;-68
2022/03/04 00:31:02;;;;;;;22.10;12.57;;;;;;;-146.41;100.00;57768.22;4977009;28;20480;-67
2022/03/04 00:33:30;;;;;;;25.65;13.63;;;;;;;-146.41;100.00;57768.22;4978036;28;20111;-67
2022/03/04 00:35:57;;;;;;;21.60;12.45;;;0.80;99.90;;;-146.41;100.00;57768.22;4978952;28;20532;-67
2022/03/04 00:38:24;;;;;;;23.77;13.18;;;0.80;99.90;;;-146.41;100.00;57768.22;4981334;28;20108;-67
2022/03/04 00:40:51;;;;;;;23.85;12.60;;;0.70;99.90;;;-146.41;100.00;57768.22;4980428;28;20078;-67
2022/03/04 00:43:18;;;;;;;25.00;13.25;;;0.60;99.90;;;-146.41;100.00;57768.22;4976546;28;20077;-67
2022/03/04 00:45:45;;;;;;;21.77;12.73;;;0.60;99.90;;;-146.41;100.00;57768.22;4983020;28;20093;-67
2022/03/04 00:48:12;;;;;;;24.95;13.65;;;0.50;99.90;;;-146.41;100.00;57768.22;4975764;28;20047;-67
2022/03/04 00:50:40;;;;;;;22.85;13.15;;;;;;;-146.41;100.00;57768.22;4980751;28;20042;-67
2022/03/04 00:53:07;;;;;;;25.02;13.43;;;0.60;99.90;;;-146.41;100.00;57768.22;4979471;28;20070;-67
2022/03/04 00:55:38;;;;;;;27.27;14.18;;;0.60;99.90;;;-146.41;100.00;57768.22;4967763;28;20138;-67
2022/03/04 00:58:07;;;;;;;24.42;14.23;;;;;;;-146.41;100.00;57768.22;4977552;28;20042;-67
2022/03/04 01:00:36;;;;;;;23.23;13.88;;;;;;;-146.41;100.00;57768.22;4981302;28;20085;-66
2022/03/04 01:03:06;;;;;;;23.30;13.43;;;;;;;-146.41;100.00;57768.22;4979366;28;20310;-67
2022/03/04 01:05:34;;;;;;;23.15;13.02;;;;;;;-146.41;100.00;57768.22;4978408;28;20054;-67
2022/03/04 01:08:01;;;;;;;23.70;13.45;;;0.10;99.90;;;-146.41;100.00;57768.22;4981394;28;20145;-68
2022/03/04 01:10:28;;;;;;;26.58;14.38;;;-0.10;99.90;;;-146.41;100.00;57768.22;4980718;28;20078;-67
2022/03/04 01:12:55;;;;;;;25.98;13.30;;;-0.20;99.90;;;-146.41;100.00;57768.22;4980939;28;20074;-67
2022/03/04 01:15:22;;;;;;;26.95;13.98;;;-0.30;99.90;;;-146.41;100.00;57768.22;4981702;28;20133;-68
2022/03/04 01:17:49;;;;;;;24.25;15.10;;;-0.30;99.90;;;-146.41;100.00;57768.22;4979348;28;20138;-67
2022/03/04 01:20:16;;;;;;;25.15;14.45;;;-0.40;99.90;;;-146.41;100.00;57768.22;4978394;28;20089;-67
2022/03/04 01:22:44;;;;;;;28.88;14.93;;;-0.40;99.90;;;-146.41;100.00;57768.22;4978383;28;20550;-68
2022/03/04 01:25:11;;;;;;;27.08;14.70;;;-0.40;99.90;;;-146.41;100.00;57768.22;4983304;28;20419;-67
2022/03/04 01:27:38;;;;;;;24.35;14.63;;;-0.50;99.90;;;-146.41;100.00;57768.22;4984330;28;20205;-67
2022/03/04 01:30:08;;;;;;;26.40;15.45;;;-0.50;99.90;;;-146.41;100.00;57768.22;4981925;28;20092;-68
2022/03/04 01:32:37;;;;;;;26.10;14.70;;;-0.50;99.90;;;-146.41;100.00;57768.22;4977727;28;20448;-67
2022/03/04 01:35:04;;;;;;;24.55;14.65;;;-0.60;99.90;;;-146.41;100.00;57768.22;4965034;28;20585;-67
2022/03/04 01:37:31;;;;;;;22.55;14.25;;;-0.60;99.90;;;-146.41;100.00;57768.22;4980235;28;20142;-68
2022/03/04 01:39:58;;;;;;;31.33;15.20;;;-0.60;99.90;;;-146.41;100.00;57768.22;4977599;28;20159;-67
2022/03/04 01:42:25;;;;;;;31.92;15.30;;;-0.70;99.90;;;-146.41;100.00;57768.22;4974188;28;20471;-67
2022/03/04 01:44:52;;;;;;;28.30;15.30;;;-0.70;99.90;;;-146.41;100.00;57768.22;4981906;28;20598;-67
2022/03/04 01:47:19;;;;;;;25.73;15.60;;;-0.70;99.90;;;-146.41;100.00;57768.22;4979787;28;20079;-67
2022/03/04 01:49:46;;;;;;;25.35;15.13;;;-0.70;99.90;;;-146.41;100.00;57768.22;4979974;28;20141;-67
2022/03/04 01:52:13;;;;;;;23.45;14.45;;;-0.80;99.90;;;-146.41;100.00;57768.22;4978256;28;20089;-67
2022/03/04 01:54:40;;;;;;;24.35;13.60;;;-0.80;99.90;;;-146.41;100.00;57768.22;4978223;28;20070;-67
2022/03/04 01:57:07;;;;;;;25.80;14.38;;;-0.80;99.90;;;-146.41;100.00;57768.22;4974390;28;20566;-68
2022/03/04 01:59:35;;;;;;;25.80;14.30;;;-0.80;99.90;;;-146.41;100.00;57768.22;4979059;28;20144;-67
2022/03/04 02:02:02;;;;;;;27.20;17.10;;;-0.80;99.90;;;-146.41;100.00;57768.22;4979138;28;20125;-67
2022/03/04 02:04:30;;;;;;;24.83;14.85;;;-0.80;99.90;;;-146.41;100.00;57768.22;4981711;28;20054;-67
2022/03/04 02:06:57;;;;;;;29.10;15.38;;;-0.80;99.90;;;-146.41;100.00;57768.22;4980876;28;20130;-67
2022/03/04 02:09:24;;;;;;;29.48;15.93;;;-0.80;99.90;;;-146.41;100.00;57768.22;4979013;28;20042;-67
2022/03/04 02:11:51;;;;;;;28.13;15.02;;;-0.80;99.90;;;-146.41;100.00;57768.22;4964102;28;20120;-67
2022/03/04 02:14:18;;;;;;;26.40;14.00;;;-0.90;99.90;;;-146.41;100.00;57768.22;4961433;28;20108;-67
2022/03/04 02:16:53;;;;;;;26.48;15.27;;;-0.80;99.90;;;-146.41;100.00;57768.22;4981119;28;20047;-68
2022/03/04 02:19:23;;;;;;;30.90;16.00;;;-0.80;99.90;;;-146.41;100.00;57768.22;4973883;28;20088;-68
2022/03/04 02:21:57;;;;;;;30.48;15.70;;;-1.00;99.90;;;-146.41;100.00;57768.22;4976365;28;20608;-67
2022/03/04 02:24:26;;;;;;;26.75;15.20;;;-1.00;99.90;;;-146.41;100.00;57768.22;4978716;28;20531;-67
2022/03/04 02:26:56;;;;;;;37.83;16.42;;;-0.90;99.90;;;-146.41;100.00;57768.22;4976449;28;20555;-67
2022/03/04 02:29:23;;;;;;;29.10;16.10;;;-0.90;99.90;;;-146.41;100.00;57768.22;4980829;28;20046;-67
2022/03/04 02:31:52;;;;;;;27.23;15.70;;;-0.80;99.90;;;-146.41;100.00;57768.22;4966440;28;20469;-68
2022/03/04 02:34:20;;;;;;;26.75;15.65;;;-0.80;99.90;;;-146.41;100.00;57768.22;4979881;28;20047;-68
2022/03/04 02:36:48;;;;;;;27.33;16.23;;;-0.80;99.90;;;-146.41;100.00;57768.22;4958877;28;20134;-67
2022/03/04 02:39:15;;;;;;;27.98;16.33;;;-0.80;99.90;;;-146.41;100.00;57768.22;4975136;28;20066;-67
2022/03/04 02:41:42;;;;;;;30.30;16.52;;;-0.80;99.90;;;-146.41;100.00;57768.22;4978938;28;20439;-67
2022/03/04 02:44:12;;;;;;;27.80;16.83;;;-0.80;99.90;;;-146.41;100.00;57768.22;4975801;28;20506;-67
2022/03/04 02:46:41;;;;;;;28.88;17.13;;;-0.90;99.90;;;-146.41;100.00;57768.22;4965063;28;20053;-67
2022/03/04 02:49:10;;;;;;;28.95;17.25;;;-0.90;99.90;;;-146.41;100.00;57768.22;4980604;28;20046;-67
2022/03/04 02:51:38;;;;;;;28.00;16.35;;;-1.00;99.90;;;-146.41;100.00;57768.22;4975159;28;20672;-67
2022/03/04 02:54:05;;;;;;;29.55;16.98;;;-1.00;99.90;;;-146.41;100.00;57768.22;4979853;28;20082;-68
2022/03/04 02:56:32;;;;;;;34.53;17.92;;;-1.00;99.90;;;-146.41;100.00;57768.22;4979765;28;20570;-67
2022/03/04 02:59:00;;;;;;;31.63;18.35;;;-1.00;99.90;;;-146.41;100.00;57768.22;4978657;28;20085;-67
2022/03/04 03:01:27;;;;;;;30.08;17.98;;;-1.00;99.90;;;-146.41;100.00;57768.22;4980924;28;20100;-67
2022/03/04 03:03:54;;;;;;;32.00;18.50;;;-1.10;99.90;;;-146.41;100.00;57768.22;4982124;28;20050;-67
2022/03/04 03:06:22;;;;;;;34.53;18.27;;;-1.10;99.90;;;-146.41;100.00;57768.22;4980429;28;20384;-67
2022/03/04 03:08:49;;;;;;;29.30;18.55;;;-1.10;99.90;;;-146.41;100.00;57768.22;4976302;28;20086;-67
2022/03/04 03:11:16;;;;;;;28.77;18.73;;;-1.20;99.90;;;-146.41;100.00;57768.22;4976930;28;20062;-67
2022/03/04 03:13:44;;;;;;;28.38;17.38;;;-1.30;99.90;;;-146.41;100.00;57768.22;4976106;28;20325;-67
2022/03/04 03:16:11;;;;;;;28.17;17.65;;;-1.30;99.90;;;-146.41;100.00;57768.22;4978513;28;20416;-67
2022/03/04 03:18:38;;;;;;;32.50;19.25;;;-1.30;99.90;;;-146.41;100.00;57768.22;4978574;28;20094;-67
2022/03/04 03:21:05;;;;;;;31.48;19.42;;;-1.40;99.90;;;-146.41;100.00;57768.22;4982345;28;20558;-67
2022/03/04 03:23:32;;;;;;;32.13;19.00;;;-1.60;99.90;;;-146.41;100.00;57768.22;4976445;28;20070;-67
2022/03/04 03:25:59;;;;;;;35.15;19.70;;;-1.70;99.90;;;-146.41;100.00;57768.22;4972708;28;20088;-67
2022/03/04 03:28:26;;;;;;;30.30;19.05;;;-1.80;99.90;;;-146.41;100.00;57768.22;4977084;28;20043;-67
2022/03/04 03:30:54;;;;;;;33.70;20.80;;;-1.80;99.90;;;-146.41;100.00;57768.22;4977527;28;20042;-67
2022/03/04 03:33:21;;;;;;;31.98;19.73;;;-1.80;99.90;;;-146.41;100.00;57768.22;4979750;28;20499;-67
2022/03/04 03:35:49;;;;;;;29.58;18.75;;;-1.80;99.90;;;-146.41;100.00;57768.22;4964867;28;20125;-67
2022/03/04 03:38:15;;;;;;;31.63;19.38;;;-1.90;99.90;;;-146.41;100.00;57768.22;4979719;28;20054;-67
2022/03/04 03:40:42;;;;;;;29.50;18.50;;;-1.90;99.90;;;-146.41;100.00;57768.22;4973220;28;20090;-67
2022/03/04 03:43:30;;;;;;;28.35;18.65;;;-2.00;99.90;;;-146.41;100.00;57768.22;4979946;28;20053;-67
2022/03/04 03:45:57;;;;;;;33.13;19.25;;;-2.10;99.90;;;-146.41;100.00;57768.22;4977338;28;20054;-67
2022/03/04 03:48:24;;;;;;;30.92;18.98;;;-2.20;99.90;;;-146.41;100.00;57768.22;4979523;28;20445;-67
2022/03/04 03:50:52;;;;;;;30.13;18.15;;;-2.20;99.90;;;-146.41;100.00;57768.22;4974838;28;20089;-67
2022/03/04 03:53:18;;;;;;;29.50;18.13;;;-2.30;99.90;;;-146.41;100.00;57768.22;4973750;28;20129;-67
2022/03/04 03:55:45;;;;;;;34.30;19.60;;;-2.40;99.90;;;-146.41;100.00;57768.22;4977580;28;20130;-67
2022/03/04 03:58:13;;;;;;;32.85;18.77;;;-2.40;99.90;;;-146.41;100.00;57768.22;4978885;28;20082;-68
2022/03/04 04:00:40;;;;;;;32.65;18.67;;;-2.30;99.90;;;-146.41;100.00;57768.22;4977145;28;20078;-67
2022/03/04 04:03:08;;;;;;;32.10;20.30;;;-2.30;99.90;;;-146.41;100.00;57768.22;4977540;28;20575;-67
2022/03/04 04:05:34;;;;;;;30.35;18.15;;;-2.30;99.90;;;-146.41;100.00;57768.22;4978756;28;20090;-67
2022/03/04 04:08:02;;;;;;;30.10;18.88;;;-2.20;99.90;;;-146.41;100.00;57768.22;4975422;28;20062;-67
2022/03/04 04:10:29;;;;;;;34.15;20.52;;;-2.30;99.90;;;-146.41;100.00;57768.22;4984505;28;20474;-67
2022/03/04 04:12:56;;;;;;;31.02;19.63;;;-2.30;99.90;;;-146.41;100.00;57768.22;4980459;28;20506;-67
2022/03/04 04:15:23;;;;;;;29.10;18.65;;;-2.30;99.90;;;-146.41;100.00;57768.22;4977943;28;20074;-67
2022/03/04 04:17:50;;;;;;;31.95;19.48;;;-2.20;99.90;;;-146.41;100.00;57768.22;4979843;28;20216;-67
2022/03/04 04:20:17;;;;;;;33.00;20.73;;;-2.30;99.90;;;-146.41;100.00;57768.22;4980969;28;20062;-67
2022/03/04 04:22:46;;;;;;;27.67;18.30;;;-2.20;99.90;;;-146.41;100.00;57768.22;4980749;28;20709;-67
2022/03/04 04:25:13;;;;;;;28.85;18.58;;;-2.20;99.90;;;-146.41;100.00;57768.22;4966683;28;20097;-66
2022/03/04 04:27:39;;;;;;;32.22;18.05;;;-2.20;99.90;;;-146.41;100.00;57768.22;4979813;28;20490;-67
2022/03/04 04:30:07;;;;;;;29.63;17.67;;;-2.20;99.90;;;-146.41;100.00;57768.22;4981105;28;20085;-66
2022/03/04 04:32:34;;;;;;;33.00;20.35;;;-2.20;99.90;;;-146.41;100.00;57768.22;4966055;28;20133;-66
2022/03/04 04:35:03;;;;;;;31.30;19.27;;;-2.20;99.90;;;-146.41;100.00;57768.22;4982619;28;20130;-66
2022/03/04 04:37:30;;;;;;;31.90;20.05;;;-2.20;99.90;;;-146.41;100.00;57768.22;4978464;28;20138;-66
2022/03/04 04:39:59;;;;;;;32.80;20.58;;;-2.10;99.90;;;-146.41;100.00;57768.22;4981561;28;20047;-67
2022/03/04 04:42:26;;;;;;;30.65;18.95;;;-1.90;99.90;;;-146.41;100.00;57768.22;4966361;28;20511;-66
2022/03/04 04:44:53;;;;;;;35.47;21.40;;;-1.90;99.90;;;-146.41;100.00;57768.22;4981418;28;20108;-67
2022/03/04 04:47:20;;;;;;;33.72;21.20;;;-1.80;99.90;;;-146.41;100.00;57768.22;4982555;28;20109;-66
2022/03/04 04:49:48;;;;;;;34.92;20.95;;;-1.70;99.90;;;-146.41;100.00;57768.22;4978132;28;20046;-66
2022/03/04 04:52:15;;;;;;;29.52;19.80;;;-1.50;99.90;;;-146.41;100.00;57768.22;4979207;28;20512;-66
2022/03/04 04:54:42;;;;;;;36.88;21.08;;;-1.60;99.90;;;-146.41;100.00;57768.22;4981772;28;20137;-66
2022/03/04 04:57:09;;;;;;;35.08;20.63;;;-1.40;99.90;;;-146.41;100.00;57768.22;4978605;28;20590;-66
2022/03/04 04:59:36;;;;;;;30.48;18.95;;;-1.40;99.90;;;-146.41;100.00;57768.22;4980584;28;20054;-66
2022/03/04 05:02:04;;;;;;;32.65;20.48;;;-1.30;99.90;;;-146.41;100.00;57768.22;4982495;28;20081;-67
2022/03/04 05:04:31;;;;;;;36.67;21.27;;;-1.40;99.90;;;-146.41;100.00;57768.22;4980099;28;20061;-66
2022/03/04 05:06:58;;;;;;;33.65;20.95;;;-1.30;99.90;;;-146.41;100.00;57768.22;4980367;28;20137;-67
2022/03/04 05:09:25;;;;;;;36.53;20.67;;;-1.30;99.90;;;-146.41;100.00;57768.22;4982693;28;20054;-66
2022/03/04 05:11:52;;;;;;;33.28;22.30;;;-1.30;99.90;;;-146.41;100.00;57768.22;4980117;28;20082;-67
2022/03/04 05:14:19;;;;;;;32.63;21.40;;;-1.20;99.90;;;-146.41;100.00;57768.22;4979346;28;20570;-66
2022/03/04 05:16:46;;;;;;;34.45;21.70;;;-1.20;99.90;;;-146.41;100.00;57768.22;4978036;28;20360;-68
2022/03/04 05:19:13;;;;;;;34.25;22.08;;;-1.20;99.90;;;-146.41;100.00;57768.22;4978732;28;20133;-66
2022/03/04 05:21:40;;;;;;;35.38;21.55;;;-1.10;99.90;;;-146.41;100.00;57768.22;4980602;28;20086;-66
2022/03/04 05:24:08;;;;;;;37.03;23.17;;;-1.30;99.90;;;-146.41;100.00;57768.22;4970179;28;20194;-66
2022/03/04 05:26:39;;;;;;;39.33;22.73;;;-1.30;99.90;;;-146.41;100.00;57768.22;4983689;28;20081;-68
2022/03/04 05:29:10;;;;;;;35.60;22.65;;;-1.20;99.90;;;-146.41;100.00;57768.22;4983088;28;20157;-66
2022/03/04 05:31:38;;;;;;;39.95;22.80;;;-1.10;99.90;;;-146.41;100.00;57768.22;4975330;28;20085;-66
2022/03/04 05:34:08;;;;;;;34.38;22.38;;;-1.00;99.90;;;-146.41;100.00;57768.22;4975911;28;20133;-66
2022/03/04 05:36:39;;;;;;;37.30;22.88;;;-1.00;99.90;;;-146.41;100.00;57768.22;4963051;28;20121;-66
2022/03/04 05:39:07;;;;;;;44.10;23.10;;;-1.00;99.90;;;-146.41;100.00;57768.22;4976512;28;20185;-66
2022/03/04 05:41:34;;;;;;;34.72;22.73;;;-0.90;99.90;;;-146.41;100.00;57768.22;4962194;28;20085;-67
2022/03/04 05:44:03;;;;;;;39.33;23.25;;;-0.90;99.90;;;-146.41;100.00;57768.22;4976917;28;20176;-67
2022/03/04 05:46:32;;;;;;;39.63;23.80;;;-0.90;99.90;;;-146.41;100.00;57768.22;4977178;28;20086;-67
2022/03/04 05:49:00;;;;;;;37.75;23.63;;;-0.90;99.90;;;-146.41;100.00;57768.22;4979777;28;20074;-67
2022/03/04 05:51:27;;;;;;;39.38;24.60;;;-0.90;99.90;;;-146.41;100.00;57768.22;4932369;28;20133;-67
2022/03/04 05:53:54;;;;;;;38.25;23.98;;;-0.90;99.90;;;-146.41;100.00;57768.22;4974413;28;20120;-67
2022/03/04 05:56:22;;;;;;;40.83;24.23;;;-0.90;99.90;;;-146.41;100.00;57768.22;4963287;28;20050;-67
2022/03/04 05:58:50;;;;;;;43.30;23.92;;;-1.00;99.90;;;-146.41;100.00;57768.22;4975756;28;20051;-66
2022/03/04 06:01:17;;;;;;;38.63;23.77;;;-1.00;99.90;;;-146.41;100.00;57768.22;4980877;28;20149;-67
2022/03/04 06:03:44;;;;;;;40.88;24.20;;;-1.00;99.90;;;-146.41;100.00;57768.22;4979746;28;20063;-67
2022/03/04 06:06:13;;;;;;;40.67;25.17;;;-1.00;99.90;;;-146.41;100.00;57768.22;4980677;28;20129;-67
2022/03/04 06:08:41;;;;;;;39.47;23.67;;;-1.10;99.90;;;-146.41;100.00;57768.22;4961740;28;20050;-67
2022/03/04 06:11:09;;;;;;;37.85;24.48;;;-1.10;99.90;;;-146.41;100.00;57768.22;4959251;28;20435;-67
2022/03/04 06:13:38;;;;;;;38.15;22.92;;;-1.10;99.90;;;-146.41;100.00;57768.22;4963350;28;20100;-67
2022/03/04 06:16:06;;;;;;;35.40;22.58;;;-1.10;99.90;;;-146.41;100.00;57768.22;4981184;28;20065;-66
2022/03/04 06:18:33;;;;;;;36.92;24.90;;;-1.20;99.90;;;-146.41;100.00;57768.22;4975614;28;20133;-67
2022/03/04 06:21:01;;;;;;;39.10;24.48;;;-1.20;99.90;;;-146.41;100.00;57768.22;4975246;28;20050;-67
2022/03/04 06:23:28;;;;;;;36.67;23.55;;;-1.20;99.90;;;-146.41;100.00;57768.22;4978846;28;20069;-66
2022/03/04 06:25:55;;;;;;;37.38;23.42;;;-1.20;99.90;;;-146.41;100.00;57768.22;4978603;28;20154;-67
2022/03/04 06:28:24;;;;;;;38.92;24.23;;;-1.20;99.90;;;-146.41;100.00;57768.22;4961445;28;20066;-67
2022/03/04 06:30:51;;;;;;;34.17;22.55;;;-1.20;99.90;;;-146.41;100.00;57768.22;4979311;28;20169;-66
2022/03/04 06:33:30;;;;;;;37.83;23.13;;;-1.20;99.90;;;-146.41;100.00;57768.22;4981236;28;20510;-67
2022/03/04 06:36:10;;;;;;;40.85;25.50;;;-1.20;99.90;;;-146.41;100.00;57768.22;4979905;28;20702;-67
2022/03/04 06:38:41;;;;;;;36.03;23.38;;;-1.20;99.90;;;-146.41;100.00;57768.22;4967964;28;20140;-67
2022/03/04 06:41:13;;;;;;;34.05;22.48;;;-1.10;99.90;;;-146.41;100.00;57768.22;4964567;28;20078;-67
2022/03/04 06:43:42;;;;;;;35.55;23.65;;;-1.10;99.90;;;-146.41;100.00;57768.22;4976982;28;20077;-67
2022/03/04 06:46:09;;;;;;;39.10;24.48;;;-1.20;99.90;;;-146.41;100.00;57768.22;4979789;28;20150;-67
2022/03/04 06:48:38;;;;;;;36.83;23.52;;;-1.10;99.90;;;-146.41;100.00;57768.22;4978031;28;20043;-67
2022/03/04 06:51:05;;;;;;;36.50;23.85;;;-1.20;99.90;;;-146.41;100.00;57768.22;4975992;28;20046;-67
2022/03/04 06:53:33;;;;;;;34.90;23.40;;;-1.20;99.90;;;-146.41;100.00;57768.22;4978830;28;20138;-66
2022/03/04 06:56:00;;;;;;;37.42;24.27;;;-1.20;99.90;;;-146.41;100.00;57768.22;4977442;28;20587;-67
2022/03/04 06:58:27;;;;;;;36.58;24.95;;;-1.20;99.90;;;-146.41;100.00;57768.22;4975910;28;20043;-67
2022/03/04 07:00:55;;;;;;;36.25;22.90;;;-1.20;99.90;;;-146.41;100.00;57768.22;4975915;28;20062;-67
2022/03/04 07:03:23;;;;;;;41.53;25.98;;;-1.20;99.90;;;-146.41;100.00;57768.22;4977892;28;20578;-67
2022/03/04 07:05:51;;;;;;;36.83;24.05;;;-1.20;99.90;;;-146.41;100.00;57768.22;4965260;28;20047;-67
2022/03/04 07:08:18;;;;;;;37.50;24.02;;;-1.10;99.90;;;-146.41;100.00;57768.22;4974890;28;20129;-67
2022/03/04 07:10:47;;;;;;;36.97;24.38;;;-1.00;99.90;;;-146.41;100.00;57768.22;4976558;28;20068;-66
2022/03/04 07:13:16;;;;;;;39.17;23.52;;;-1.00;99.90;;;-146.41;100.00;57768.22;4976210;28;20085;-67
2022/03/04 07:15:43;;;;;;;37.40;24.50;;;-0.90;99.90;;;-146.41;100.00;57768.22;4975294;28;20057;-67
2022/03/04 07:18:11;;;;;;;41.17;24.95;;;-0.90;99.90;;;-146.41;100.00;57768.22;4979367;28;20066;-66
2022/03/04 07:20:40;;;;;;;36.60;24.00;;;-0.90;99.90;;;-146.41;100.00;57768.22;4975907;28;20164;-66
2022/03/04 07:23:07;;;;;;;39.65;25.38;;;-0.80;99.90;;;-146.41;100.00;57768.22;4978883;28;20058;-67
2022/03/04 07:25:35;;;;;;;39.20;24.83;;;-0.70;99.90;;;-146.41;100.00;57768.22;4978945;28;20467;-66
2022/03/04 07:28:02;;;;;;;42.17;26.38;;;-0.70;99.90;;;-146.41;100.00;57768.22;4978137;28;20060;-66
2022/03/04 07:30:29;;;;;;;42.78;26.80;;;-0.60;99.90;;;-146.41;100.00;57768.22;4981582;28;20070;-67
2022/03/04 07:32:58;;;;;;;41.92;25.70;;;-0.50;99.90;;;-146.41;100.00;57768.22;4981844;28;20098;-67
2022/03/04 07:35:25;;;;;;;41.45;25.75;;;-0.40;99.90;;;-146.41;100.00;57768.22;4979432;28;20058;-65
2022/03/04 07:37:53;;;;;;;44.45;28.13;;;-0.30;99.90;;;-146.41;100.00;57768.22;4978749;28;20050;-66
2022/03/04 07:40:20;;;;;;;45.20;26.63;;;-0.20;99.90;;;-146.41;100.00;57768.22;4976807;28;20078;-67
2022/03/04 07:42:47;;;;;;;49.42;28.17;;;-0.10;99.90;;;-146.41;100.00;57768.22;4973481;28;20093;-67
2022/03/04 07:45:14;;;;;;;41.38;26.70;;;0.00;99.90;;;-146.41;100.00;57768.22;4964052;28;20217;-67
2022/03/04 07:47:43;;;;;;;40.20;26.65;;;0.20;99.90;;;-146.41;100.00;57768.22;4978684;28;20105;-67
2022/03/04 07:50:14;;;;;;;46.05;27.15;;;0.50;99.90;;;-146.41;100.00;57768.22;4975115;28;20054;-67
2022/03/04 07:52:43;;;;;;;39.25;22.90;;;0.90;99.90;;;-146.41;100.00;57768.22;4974817;28;20137;-67
2022/03/04 07:55:14;;;;;;;41.08;24.38;;;1.30;99.90;;;-146.41;100.00;57768.22;4964703;28;20050;-68
2022/03/04 07:57:42;;;;;;;42.88;23.77;;;1.60;99.90;;;-146.41;100.00;57768.22;4979646;28;20057;-67
2022/03/04 08:00:14;;;;;;;42.35;25.20;;;1.80;99.90;;;-146.41;100.00;57768.22;4961503;28;20101;-68
2022/03/04 08:02:42;;;;;;;40.28;25.10;;;2.20;99.90;;;-146.41;100.00;57768.22;4962019;28;20162;-68
2022/03/04 08:05:10;;;;;;;41.65;24.75;;;2.30;99.90;;;-146.41;100.00;57768.22;4963818;28;20141;-67
2022/03/04 08:07:37;;;;;;;46.00;24.45;;;2.50;99.90;;;-146.41;100.00;57768.22;4965405;28;20054;-68
2022/03/04 08:10:09;;;;;;;37.53;24.17;;;2.60;99.90;;;-146.41;100.00;57768.22;4977469;28;20166;-68
2022/03/04 08:12:38;;;;;;;37.08;23.13;;;2.90;99.90;;;-146.41;100.00;57768.22;4980275;28;20129;-68
2022/03/04 08:15:08;;;;;;;39.03;24.45;;;3.20;99.90;;;-146.41;100.00;57768.22;4972749;28;20109;-68
2022/03/04 08:17:35;;;;;;;35.20;23.08;;;3.30;99.90;;;-146.41;100.00;57768.22;4963169;28;20571;-67
2022/03/04 08:20:03;;;;;;;37.67;24.30;;;3.40;99.90;;;-146.41;100.00;57768.22;4977692;28;20505;-68
2022/03/04 08:22:30;;;;;;;34.33;23.17;;;3.80;99.90;;;-146.41;100.00;57768.22;4975083;28;20086;-67
2022/03/04 08:24:57;;;;;;;35.03;22.73;;;3.90;99.90;;;-146.41;100.00;57768.22;4979809;28;20046;-68
2022/03/04 08:27:24;;;;;;;34.53;22.77;;;4.00;99.90;;;-146.41;100.00;57768.22;4980317;28;20133;-67
2022/03/04 08:29:51;;;;;;;32.90;23.35;;;4.10;99.90;;;-146.41;100.00;57768.22;4975459;28;20137;-68
2022/03/04 08:32:22;;;;;;;34.97;23.15;;;4.20;99.90;;;-146.41;100.00;57768.22;4974853;28;20654;-68
2022/03/04 08:34:53;;;;;;;33.25;22.80;;;4.20;99.90;;;-146.41;100.00;57768.22;4979326;28;20043;-68
2022/03/04 08:37:20;;;;;;;35.15;23.33;;;4.30;99.90;;;-146.41;100.00;57768.22;4978357;28;20081;-68
2022/03/04 08:39:47;;;;;;;35.22;23.23;;;4.50;99.90;;;-146.41;100.00;57768.22;4977724;28;20117;-68
2022/03/04 08:42:14;;;;;;;37.25;23.35;;;4.60;99.90;;;-146.41;100.00;57768.22;4974806;28;20140;-67
2022/03/04 08:44:42;;;;;;;36.03;23.40;;;4.70;99.90;;;-146.41;100.00;57768.22;4962211;28;20456;-68
2022/03/04 08:47:10;;;;;;;32.45;22.35;;;4.80;99.90;;;-146.41;100.00;57768.22;4961447;28;20047;-68
2022/03/04 08:49:37;;;;;;;36.97;23.02;;;5.10;99.90;;;-146.41;100.00;57768.22;4977429;28;20068;-68
2022/03/04 08:52:06;;;;;;;33.95;23.42;;;5.10;99.60;;;-146.41;100.00;57768.22;4973677;28;20483;-68
2022/03/04 08:54:33;;;;;;;35.40;22.75;;;5.20;99.60;;;-146.41;100.00;57768.22;4977508;28;20070;-68
2022/03/04 08:57:00;;;;;;;43.33;24.35;;;5.20;99.30;;;-146.41;100.00;57768.22;4978608;28;20050;-68
2022/03/04 08:59:27;;;;;;;35.03;23.23;;;5.30;99.70;;;-146.41;100.00;57768.22;4980496;28;20054;-68
2022/03/04 09:01:54;;;;;;;36.42;22.23;;;5.40;98.70;;;-146.41;100.00;57768.22;4980300;28;20506;-68
2022/03/04 09:04:22;;;;;;;33.92;22.05;;;5.60;97.90;;;-146.41;100.00;57768.22;4981289;28;20046;-68
2022/03/04 09:06:49;;;;;;;33.38;22.85;;;5.50;97.70;;;-146.41;100.00;57768.22;4980512;28;20436;-68
2022/03/04 09:09:16;;;;;;;32.92;21.85;;;5.70;96.70;;;-146.41;100.00;57768.22;4983827;28;20082;-68
2022/03/04 09:11:44;;;;;;;31.75;22.65;;;;;;;-146.41;100.00;57768.22;4979207;28;20047;-68
2022/03/04 09:14:11;;;;;;;36.17;23.33;;;5.70;96.60;;;-146.41;100.00;57768.22;4965684;28;20057;-68
2022/03/04 09:16:38;;;;;;;32.20;21.98;;;5.70;97.00;;;-146.41;100.00;57768.22;4980980;28;20133;-68
2022/03/04 09:19:05;;;;;;;39.08;23.90;;;5.50;96.50;;;-146.41;100.00;57768.22;4980142;28;20050;-68
2022/03/04 09:21:32;;;;;;;34.25;22.42;;;5.30;97.60;;;-146.41;100.00;57768.22;4981110;28;20129;-68
2022/03/04 09:23:59;;;;;;;32.90;22.08;;;5.00;97.60;;;-146.41;100.00;57768.22;4980684;28;20142;-68
2022/03/04 09:26:29;;;;;;;38.30;22.80;;;4.90;98.10;;;-146.41;100.00;57768.22;4981867;28;20085;-68
2022/03/04 09:28:56;;;;;;;33.97;23.02;;;4.90;98.10;;;-146.41;100.00;57768.22;4981623;28;20157;-67
2022/03/04 09:31:23;;;;;;;37.47;22.85;;;4.80;99.10;;;-146.41;100.00;57768.22;4982445;28;20082;-67
2022/03/04 09:33:50;;;;;;;36.30;22.65;;;4.90;99.10;;;-146.41;100.00;57768.22;4977323;28;20523;-68
2022/03/04 09:36:17;;;;;;;35.53;22.17;;;4.70;99.20;;;-146.41;100.00;57768.22;4980428;28;20142;-67
2022/03/04 09:38:45;;;;;;;39.60;21.98;;;4.50;99.50;;;-146.41;100.00;57768.22;4981326;28;20534;-67
2022/03/04 09:41:12;;;;;;;37.55;22.90;;;4.40;99.70;;;-146.41;100.00;57768.22;4963704;28;20065;-67
2022/03/04 09:43:41;;;;;;;35.03;21.63;;;4.40;99.70;;;-146.41;100.00;57768.22;4974576;28;20120;-67
2022/03/04 09:46:08;;;;;;;35.45;22.40;;;4.50;99.40;;;-146.41;100.00;57768.22;4982235;28;20524;-67
2022/03/04 09:48:40;;;;;;;38.17;21.60;;;4.40;99.80;;;-146.41;100.00;57768.22;4980939;28;20061;-67
2022/03/04 09:51:08;;;;;;;38.47;22.00;;;4.50;99.30;;;-146.41;100.00;57768.22;4979545;28;20054;-67
2022/03/04 09:53:35;;;;;;;37.85;22.45;;;4.40;99.90;;;-146.41;100.00;57768.22;4980201;28;20081;-67
2022/03/04 09:56:05;;;;;;;38.00;22.63;;;4.40;99.90;;;-146.41;100.00;57768.22;4979404;28;20042;-67